createdAt,value
2018-10-06T00:00:36.465Z,12.60
2018-10-06T00:04:39.832Z,12.60
2018-10-06T00:08:43.192Z,12.50
2018-10-06T00:12:46.575Z,12.40
2018-10-06T00:16:49.957Z,12.40
2018-10-06T00:20:53.287Z,12.40
2018-10-06T00:24:56.675Z,12.40
2018-10-06T00:29:00.034Z,12.30
2018-10-06T00:33:03.393Z,12.30
2018-10-06T00:37:06.841Z,12.30
2018-10-06T00:41:10.197Z,12.20
2018-10-06T00:45:13.557Z,12.20
2018-10-06T00:49:16.980Z,12.10
2018-10-06T00:53:20.334Z,12.10
2018-10-06T00:57:23.704Z,12.10
2018-10-06T01:01:27.037Z,12.10
2018-10-06T01:05:30.423Z,12.10
2018-10-06T01:09:33.808Z,12.10
2018-10-06T01:13:37.192Z,12.10
2018-10-06T01:17:40.564Z,12.10
2018-10-06T01:21:43.933Z,12.00
2018-10-06T01:25:47.315Z,12.00
2018-10-06T01:29:50.697Z,12.00
2018-10-06T01:33:54.058Z,12.00
2018-10-06T01:37:57.444Z,12.10
2018-10-06T01:42:01.212Z,12.10
2018-10-06T01:46:04.629Z,12.10
2018-10-06T01:50:08.766Z,12.10
2018-10-06T01:54:12.124Z,12.10
2018-10-06T01:58:15.483Z,12.10
2018-10-06T02:02:18.837Z,12.10
2018-10-06T02:06:22.221Z,12.10
2018-10-06T02:10:25.608Z,12.10
2018-10-06T02:14:28.998Z,12.10
2018-10-06T02:18:32.415Z,12.10
2018-10-06T02:22:36.932Z,12.10
2018-10-06T02:26:40.294Z,12.10
2018-10-06T02:30:45.771Z,12.10
2018-10-06T02:34:49.168Z,12.10
2018-10-06T02:38:52.569Z,12.10
2018-10-06T02:42:55.915Z,12.10
2018-10-06T02:46:59.278Z,12.00
2018-10-06T02:51:03.707Z,12.00
2018-10-06T02:55:07.190Z,12.00
2018-10-06T02:59:10.564Z,12.00
2018-10-06T03:03:13.976Z,12.00
2018-10-06T03:07:17.328Z,12.00
2018-10-06T03:11:20.712Z,12.00
2018-10-06T03:15:24.101Z,12.00
2018-10-06T03:19:27.483Z,12.00
2018-10-06T03:23:30.823Z,12.00
2018-10-06T03:27:34.193Z,12.00
2018-10-06T03:31:37.612Z,12.00
2018-10-06T03:35:40.977Z,12.00
2018-10-06T03:39:44.454Z,12.00
2018-10-06T03:43:47.785Z,11.90
2018-10-06T03:47:51.236Z,11.90
2018-10-06T03:51:54.597Z,11.90
2018-10-06T03:55:58.121Z,11.90
2018-10-06T04:00:01.472Z,11.90
2018-10-06T04:04:04.816Z,11.90
2018-10-06T04:08:08.176Z,11.90
2018-10-06T04:12:11.557Z,11.90
2018-10-06T04:16:14.924Z,11.80
2018-10-06T04:20:18.336Z,11.80
2018-10-06T04:24:21.676Z,11.80
2018-10-06T04:28:25.090Z,11.70
2018-10-06T04:32:28.447Z,11.70
2018-10-06T04:36:32.488Z,11.70
2018-10-06T04:40:36.475Z,11.70
2018-10-06T04:44:41.011Z,11.60
2018-10-06T04:48:44.408Z,11.60
2018-10-06T04:52:47.775Z,11.60
2018-10-06T04:56:51.162Z,11.60
2018-10-06T05:00:54.948Z,11.60
2018-10-06T05:04:58.340Z,11.60
2018-10-06T05:09:01.716Z,11.60
2018-10-06T05:13:05.071Z,11.60
2018-10-06T05:17:08.477Z,11.60
2018-10-06T05:21:11.827Z,11.50
2018-10-06T05:25:15.196Z,11.50
2018-10-06T05:29:18.582Z,11.50
2018-10-06T05:33:21.969Z,11.50
2018-10-06T05:37:25.384Z,11.50
2018-10-06T05:41:28.741Z,11.40
2018-10-06T05:45:32.116Z,11.40
2018-10-06T05:49:35.572Z,11.40
2018-10-06T05:53:38.935Z,11.40
2018-10-06T05:57:42.361Z,11.30
2018-10-06T06:01:45.755Z,11.30
2018-10-06T06:05:49.145Z,11.30
2018-10-06T06:09:54.115Z,11.30
2018-10-06T06:13:57.532Z,11.40
2018-10-06T06:18:00.911Z,11.40
2018-10-06T06:22:04.271Z,11.40
2018-10-06T06:26:07.690Z,11.50
2018-10-06T06:30:11.181Z,11.50
2018-10-06T06:34:15.136Z,11.60
2018-10-06T06:38:18.597Z,11.60
2018-10-06T06:42:21.981Z,11.70
2018-10-06T06:46:25.361Z,11.80
2018-10-06T06:50:28.769Z,11.90
2018-10-06T06:54:32.131Z,12.10
2018-10-06T06:58:35.734Z,12.40
2018-10-06T07:02:39.390Z,12.70
2018-10-06T07:06:43.960Z,13.20
2018-10-06T07:10:47.389Z,13.80
2018-10-06T07:14:50.769Z,14.30
2018-10-06T07:18:55.092Z,14.90
2018-10-06T07:22:58.448Z,15.40
2018-10-06T07:27:01.860Z,15.90
2018-10-06T07:31:05.557Z,16.40
2018-10-06T07:35:08.927Z,16.90
2018-10-06T07:39:12.302Z,17.40
2018-10-06T07:43:16.699Z,18.00
2018-10-06T07:47:20.323Z,18.50
2018-10-06T07:51:23.963Z,19.00
2018-10-06T07:55:27.524Z,19.40
2018-10-06T07:59:30.905Z,19.90
2018-10-06T08:03:34.436Z,20.40
2018-10-06T08:07:37.812Z,20.90
2018-10-06T08:11:41.156Z,21.20
2018-10-06T08:15:44.537Z,21.60
2018-10-06T08:19:48.009Z,22.00
2018-10-06T08:23:51.356Z,22.30
2018-10-06T08:27:54.716Z,22.60
2018-10-06T08:36:02.647Z,23.70
2018-10-06T08:40:06.103Z,23.70
2018-10-06T08:44:09.471Z,24.10
2018-10-06T08:52:16.053Z,24.80
2018-10-06T08:56:19.539Z,25.20
2018-10-06T09:00:22.897Z,25.50
2018-10-06T09:04:26.702Z,25.80
2018-10-06T09:08:29.956Z,26.10
2018-10-06T09:12:33.372Z,26.30
2018-10-06T09:16:36.770Z,26.50
2018-10-06T09:20:40.404Z,26.70
2018-10-06T09:24:43.767Z,26.90
2018-10-06T09:28:47.140Z,27.20
2018-10-06T09:32:50.488Z,27.60
2018-10-06T09:36:53.866Z,27.80
2018-10-06T09:40:57.472Z,28.10
2018-10-06T09:45:00.891Z,28.40
2018-10-06T09:49:05.292Z,28.70
2018-10-06T09:53:08.673Z,28.80
2018-10-06T09:57:12.049Z,28.90
2018-10-06T10:01:21.918Z,29.30
2018-10-06T10:05:57.347Z,29.50
2018-10-06T10:10:00.761Z,29.70
2018-10-06T10:14:04.521Z,29.90
2018-10-06T10:18:07.987Z,30.10
2018-10-06T12:56:15.030Z,30.10
2018-10-06T13:00:18.506Z,29.80
2018-10-06T13:04:21.871Z,29.40
2018-10-06T13:08:25.232Z,29.10
2018-10-06T13:12:28.611Z,28.80
2018-10-06T13:16:32.002Z,28.50
2018-10-06T13:20:35.483Z,28.20
2018-10-06T13:24:38.850Z,28.00
2018-10-06T13:28:42.233Z,27.70
2018-10-06T13:32:45.593Z,27.50
2018-10-06T13:36:48.988Z,27.40
2018-10-06T13:40:52.373Z,27.30
2018-10-06T13:44:55.745Z,27.10
2018-10-06T13:48:59.120Z,27.10
2018-10-06T13:53:02.494Z,27.00
2018-10-06T13:57:05.884Z,26.90
2018-10-06T14:01:09.330Z,26.80
2018-10-06T14:05:12.717Z,26.70
2018-10-06T14:09:16.092Z,26.60
2018-10-06T14:13:19.437Z,26.60
2018-10-06T14:17:22.864Z,26.90
2018-10-06T14:21:26.240Z,27.10
2018-10-06T14:25:29.619Z,27.30
2018-10-06T14:29:33.020Z,27.50
2018-10-06T14:33:36.384Z,27.60
2018-10-06T14:37:39.760Z,27.90
2018-10-06T14:41:43.132Z,27.90
2018-10-06T14:45:47.295Z,28.00
2018-10-06T14:49:50.733Z,27.90
2018-10-06T14:53:54.120Z,27.80
2018-10-06T14:57:58.606Z,27.70
2018-10-06T15:02:02.029Z,27.50
2018-10-06T15:06:05.395Z,27.40
2018-10-06T15:10:08.774Z,27.20
2018-10-06T15:14:12.191Z,27.00
2018-10-06T15:18:15.584Z,26.90
2018-10-06T15:22:18.977Z,26.70
2018-10-06T15:26:22.336Z,26.60
2018-10-06T15:30:29.205Z,26.50
2018-10-06T15:34:32.906Z,26.40
2018-10-06T15:38:36.292Z,26.30
2018-10-06T15:42:39.704Z,26.30
2018-10-06T15:46:43.056Z,26.40
2018-10-06T15:50:46.935Z,26.50
2018-10-06T15:54:50.327Z,26.60
2018-10-06T15:58:53.785Z,26.70
2018-10-06T16:02:57.175Z,26.60
2018-10-06T16:07:00.784Z,26.50
2018-10-06T16:11:04.135Z,26.40
2018-10-06T16:15:07.543Z,26.20
2018-10-06T16:19:10.910Z,26.00
2018-10-06T16:23:14.266Z,25.80
2018-10-06T16:27:17.677Z,25.60
2018-10-06T16:31:21.068Z,25.30
2018-10-06T16:35:24.700Z,25.20
2018-10-06T16:39:28.168Z,25.00
2018-10-06T16:43:31.541Z,24.80
2018-10-06T16:47:34.883Z,24.70
2018-10-06T16:51:38.258Z,24.50
2018-10-06T16:55:41.639Z,24.30
2018-10-06T16:59:45.197Z,24.20
2018-10-06T17:03:48.580Z,24.10
2018-10-06T17:07:52.026Z,23.90
2018-10-06T17:11:55.360Z,23.70
2018-10-06T17:15:58.739Z,23.60
2018-10-06T17:20:02.124Z,23.50
2018-10-06T17:24:06.037Z,23.40
2018-10-06T17:28:09.372Z,23.20
2018-10-06T17:32:14.032Z,23.10
2018-10-06T17:36:17.420Z,22.90
2018-10-06T17:40:20.812Z,22.70
2018-10-06T17:44:24.272Z,22.60
2018-10-06T17:48:27.771Z,22.40
2018-10-06T17:52:32.217Z,22.30
2018-10-06T17:56:35.589Z,22.20
2018-10-06T18:00:38.981Z,22.00
2018-10-06T18:04:42.373Z,21.90
2018-10-06T18:08:46.224Z,21.80
2018-10-06T18:12:49.626Z,21.70
2018-10-06T18:16:53.329Z,21.60
2018-10-06T18:20:56.741Z,21.40
2018-10-06T18:25:00.105Z,21.40
2018-10-06T18:29:03.524Z,21.30
2018-10-06T18:33:06.875Z,21.20
2018-10-06T18:37:10.400Z,21.10
2018-10-06T18:41:13.647Z,21.00
2018-10-06T18:45:17.584Z,20.90
2018-10-06T18:49:21.048Z,20.90
2018-10-06T18:53:24.391Z,20.90
2018-10-06T18:57:27.834Z,20.80
2018-10-06T19:01:31.368Z,20.70
2018-10-06T19:05:34.910Z,20.60
2018-10-06T19:09:38.284Z,20.50
2018-10-06T19:13:41.690Z,20.40
2018-10-06T19:17:45.092Z,20.30
2018-10-06T19:21:48.495Z,20.30
2018-10-06T19:25:51.961Z,20.20
2018-10-06T19:29:55.275Z,20.00
2018-10-06T19:33:58.663Z,20.00
2018-10-06T19:38:02.028Z,19.90
2018-10-06T19:42:05.408Z,19.90
2018-10-06T19:46:09.110Z,19.80
2018-10-06T19:50:12.571Z,19.80
2018-10-06T19:54:16.284Z,19.80
2018-10-06T19:58:19.904Z,19.70
2018-10-06T20:02:23.291Z,19.70
2018-10-06T20:06:28.953Z,19.60
2018-10-06T20:10:32.349Z,19.50
2018-10-06T20:14:35.739Z,19.40
2018-10-06T20:18:39.140Z,19.40
2018-10-06T20:22:42.840Z,19.30
2018-10-06T20:26:46.227Z,19.20
2018-10-06T20:30:49.693Z,19.20
2018-10-06T20:34:53.105Z,19.10
2018-10-06T20:38:56.502Z,19.10
2018-10-06T20:42:59.904Z,19.00
2018-10-06T20:47:03.252Z,18.90
2018-10-06T20:51:07.701Z,18.90
2018-10-06T20:55:11.144Z,18.80
2018-10-06T20:59:14.510Z,18.70
2018-10-06T21:03:17.938Z,18.60
2018-10-06T21:07:21.301Z,18.60
2018-10-06T21:11:25.121Z,18.50
2018-10-06T21:15:28.512Z,18.40
2018-10-06T21:19:32.119Z,18.30
2018-10-06T21:23:35.515Z,18.20
2018-10-06T21:27:38.896Z,18.10
2018-10-06T21:31:42.303Z,18.00
2018-10-06T21:35:45.672Z,18.00
2018-10-06T21:39:49.080Z,17.80
2018-10-06T21:43:52.480Z,17.80
2018-10-06T21:47:55.859Z,17.70
2018-10-06T21:51:59.255Z,17.60
2018-10-06T21:56:02.704Z,17.50
2018-10-06T22:00:09.620Z,17.50
2018-10-06T22:04:13.011Z,17.40
2018-10-06T22:08:16.372Z,17.40
2018-10-06T22:12:19.740Z,17.30
2018-10-06T22:16:24.047Z,17.20
2018-10-06T22:20:27.516Z,17.20
2018-10-06T22:24:30.963Z,17.10
2018-10-06T22:28:34.312Z,17.10
2018-10-06T22:32:37.693Z,17.00
2018-10-06T22:36:41.083Z,17.00
2018-10-06T22:40:44.457Z,16.90
2018-10-06T22:44:47.824Z,16.90
2018-10-06T22:48:51.281Z,16.80
2018-10-06T22:52:55.775Z,16.80
2018-10-06T22:56:59.253Z,16.80
2018-10-06T23:01:02.669Z,16.80
2018-10-06T23:05:06.073Z,16.70
2018-10-06T23:09:11.520Z,16.70
2018-10-06T23:13:14.879Z,16.70
2018-10-06T23:17:19.135Z,16.70
2018-10-06T23:21:22.548Z,16.60
2018-10-06T23:25:25.925Z,16.60
2018-10-06T23:29:29.294Z,16.60
2018-10-06T23:33:32.701Z,16.60
2018-10-06T23:37:36.099Z,16.60
2018-10-06T23:41:39.504Z,16.60
2018-10-06T23:45:44.191Z,16.60
2018-10-06T23:49:47.601Z,16.60
2018-10-06T23:53:50.989Z,16.50
2018-10-06T23:57:54.348Z,16.50
